Time;durP1;ratioP1;P1;durP2;ratioP2;P2;SDS_P1;SDS_P2;PMS_P1;PMS_P2;Temp;Humidity;BMP_temperature;BMP_pressure;BME280_temperature;BME280_humidity;BME280_pressure;Samples;Min_cycle;Max_cycle;Signal;HPM_P1;HPM_P2
2022/09/12 00:01:31;;;;;;;3.50;3.40;;;15.00;1.00;;;;;;6279680;28;20237;-55
2022/09/12 00:04:36;;;;;;;4.03;3.70;;;14.90;1.00;;;;;;6285414;28;20230;-56
2022/09/12 00:07:39;;;;;;;3.77;3.67;;;14.90;1.00;;;;;;6273506;28;20245;-57
2022/09/12 00:10:44;;;;;;;3.87;3.67;;;14.80;1.00;;;;;;6260716;28;20268;-56
2022/09/12 00:13:47;;;;;;;3.20;3.20;;;14.70;1.00;;;;;;6261773;28;20237;-55
2022/09/12 00:17:01;;;;;;;3.70;3.50;;;14.60;1.00;;;;;;6261976;28;20238;-56
2022/09/12 00:20:08;;;;;;;3.03;3.03;;;14.60;1.00;;;;;;6284809;28;20302;-56
2022/09/12 00:23:11;;;;;;;3.30;3.20;;;14.50;1.00;;;;;;6286551;28;20252;-56
2022/09/12 00:26:16;;;;;;;3.07;2.97;;;14.50;1.00;;;;;;6261765;28;20234;-55
2022/09/12 00:29:21;;;;;;;3.30;3.30;;;14.40;1.00;;;;;;6261331;28;20325;-56
2022/09/12 00:32:24;;;;;;;3.60;3.57;;;14.30;1.00;;;;;;6263598;28;20282;-56
2022/09/12 00:35:28;;;;;;;3.60;3.50;;;14.30;1.00;;;;;;6290439;28;20232;-57
2022/09/12 00:38:32;;;;;;;3.73;3.60;;;14.30;1.00;;;;;;6288334;28;20234;-54
2022/09/12 00:41:39;;;;;;;3.53;3.40;;;14.20;1.00;;;;;;6261240;28;20231;-55
2022/09/12 00:44:45;;;;;;;3.90;3.80;;;14.20;1.00;;;;;;6260870;28;20738;-56
2022/09/12 00:47:49;;;;;;;4.00;3.80;;;14.20;1.00;;;;;;6281198;28;20233;-56
2022/09/12 00:50:53;;;;;;;3.50;3.40;;;14.20;1.00;;;;;;6291698;28;20369;-56
2022/09/12 00:53:59;;;;;;;3.67;3.57;;;14.10;1.00;;;;;;6285393;28;20233;-58
2022/09/12 00:57:06;;;;;;;3.80;3.67;;;14.10;1.00;;;;;;6285361;28;20248;-57
2022/09/12 01:00:14;;;;;;;3.47;3.47;;;14.00;1.00;;;;;;6266454;28;20245;-56
2022/09/12 01:03:19;;;;;;;3.20;3.20;;;14.00;1.00;;;;;;6273029;28;20224;-55
2022/09/12 01:06:27;;;;;;;5.03;4.83;;;13.90;1.00;;;;;;6291950;28;20620;-57
2022/09/12 01:09:30;;;;;;;4.77;4.50;;;13.90;1.00;;;;;;6282475;28;20745;-55
2022/09/12 01:12:34;;;;;;;4.33;4.17;;;13.90;1.00;;;;;;6285263;28;20236;-56
2022/09/12 01:15:39;;;;;;;4.00;3.90;;;13.90;1.00;;;;;;6283781;28;20433;-55
2022/09/12 01:18:55;;;;;;;5.10;4.80;;;13.90;1.00;;;;;;6287353;28;20704;-55
2022/09/12 01:22:19;;;;;;;4.10;3.93;;;13.90;1.00;;;;;;6275270;28;20281;-55
2022/09/12 01:25:29;;;;;;;5.37;5.07;;;13.90;1.00;;;;;;6260402;28;20230;-56
2022/09/12 01:29:01;;;;;;;4.70;4.40;;;13.90;1.00;;;;;;6259984;28;20230;-55
2022/09/12 01:32:15;;;;;;;4.73;4.43;;;13.90;1.00;;;;;;6232037;28;20803;-60
2022/09/12 01:35:23;;;;;;;5.33;4.93;;;13.90;1.00;;;;;;6284269;28;20372;-57
2022/09/12 01:38:35;;;;;;;4.80;4.60;;;13.90;1.00;;;;;;6309527;28;20232;-56
2022/09/12 01:41:53;;;;;;;4.83;4.40;;;13.80;1.00;;;;;;6287879;28;20588;-56
2022/09/12 01:45:03;;;;;;;4.50;4.23;;;13.90;1.00;;;;;;6282238;28;20739;-56
2022/09/12 01:48:15;;;;;;;4.83;4.63;;;13.80;1.00;;;;;;6274818;28;20242;-56
2022/09/12 01:51:23;;;;;;;6.63;5.70;;;13.80;1.00;;;;;;6287118;28;20244;-56
2022/09/12 01:54:30;;;;;;;5.63;4.73;;;13.80;1.00;;;;;;6283876;28;20237;-56
2022/09/12 01:57:40;;;;;;;4.23;3.93;;;13.80;1.00;;;;;;6261332;28;20234;-55
2022/09/12 02:00:53;;;;;;;4.47;4.17;;;13.70;1.00;;;;;;6259468;28;20507;-56
2022/09/12 02:04:07;;;;;;;5.43;4.90;;;13.70;1.00;;;;;;6254200;28;20298;-56
2022/09/12 02:07:17;;;;;;;5.60;4.80;;;13.70;1.00;;;;;;6279844;28;20229;-56
2022/09/12 02:10:24;;;;;;;7.27;5.97;;;13.70;1.00;;;;;;6284051;28;20242;-58
2022/09/12 02:13:39;;;;;;;5.37;4.93;;;13.60;1.00;;;;;;6282325;28;20230;-56
2022/09/12 02:16:46;;;;;;;5.70;5.40;;;13.60;1.00;;;;;;6283004;28;20226;-56
2022/09/12 02:19:56;;;;;;;5.23;4.93;;;13.60;1.00;;;;;;6283288;28;20237;-56
2022/09/12 02:23:00;;;;;;;5.50;5.10;;;13.60;1.00;;;;;;6271465;28;20234;-55
2022/09/12 02:26:10;;;;;;;5.83;5.43;;;13.60;1.00;;;;;;6257572;28;20702;-56
2022/09/12 02:29:13;;;;;;;5.23;5.03;;;13.60;1.00;;;;;;6258455;28;20230;-56
2022/09/12 02:32:25;;;;;;;4.37;4.23;;;13.60;1.00;;;;;;6260325;28;20226;-56
2022/09/12 02:35:35;;;;;;;4.40;4.20;;;13.60;1.00;;;;;;6299712;28;20233;-56
2022/09/12 02:38:44;;;;;;;5.47;5.07;;;13.60;1.00;;;;;;6295589;28;20242;-55
2022/09/12 02:41:48;;;;;;;5.50;5.20;;;13.60;1.00;;;;;;6283666;28;20588;-56
2022/09/12 02:44:53;;;;;;;5.53;5.33;;;13.60;1.00;;;;;;6283777;28;20313;-55
2022/09/12 02:48:00;;;;;;;4.40;4.30;;;13.60;1.00;;;;;;6239644;28;20365;-56
2022/09/12 02:51:04;;;;;;;4.67;4.47;;;13.60;1.00;;;;;;6283891;28;20505;-56
2022/09/12 02:54:19;;;;;;;4.77;4.50;;;13.60;1.00;;;;;;6296097;28;20325;-54
2022/09/12 02:57:22;;;;;;;4.27;4.07;;;13.60;1.00;;;;;;6283361;28;20230;-56
2022/09/12 03:00:26;;;;;;;4.40;4.20;;;13.50;1.00;;;;;;6281249;28;20245;-56
2022/09/12 03:03:50;;;;;;;4.80;4.50;;;13.50;1.00;;;;;;6288364;28;20271;-56
2022/09/12 03:07:06;;;;;;;3.77;3.57;;;13.50;1.00;;;;;;6277208;28;20329;-55
2022/09/12 03:10:18;;;;;;;4.50;4.30;;;13.40;1.00;;;;;;6275434;28;20233;-56
2022/09/12 03:13:26;;;;;;;4.63;4.43;;;13.40;1.00;;;;;;6282095;28;20236;-57
2022/09/12 03:16:37;;;;;;;4.20;4.00;;;13.40;1.00;;;;;;6282641;28;20348;-56
2022/09/12 03:19:51;;;;;;;5.40;5.10;;;13.40;1.00;;;;;;6281521;28;20384;-56
2022/09/12 03:22:59;;;;;;;4.80;4.70;;;13.40;1.00;;;;;;6273339;28;20616;-56
2022/09/12 03:26:08;;;;;;;5.20;4.90;;;13.30;1.00;;;;;;6283283;28;20233;-56
2022/09/12 03:29:19;;;;;;;4.40;4.30;;;13.30;1.00;;;;;;6307951;28;20499;-56
2022/09/12 03:32:40;;;;;;;4.93;4.73;;;13.30;1.00;;;;;;6279403;28;20500;-56
2022/09/12 03:35:43;;;;;;;4.50;4.30;;;13.20;1.00;;;;;;6280710;28;20710;-57
2022/09/12 03:38:48;;;;;;;5.03;4.83;;;13.20;1.00;;;;;;6278719;28;20244;-56
2022/09/12 03:41:51;;;;;;;5.50;5.17;;;13.20;1.00;;;;;;6283625;28;20500;-56
2022/09/12 03:44:55;;;;;;;4.97;4.77;;;13.10;1.00;;;;;;6274121;28;20265;-57
2022/09/12 03:47:59;;;;;;;4.57;4.47;;;13.10;1.00;;;;;;6289657;28;20233;-56
2022/09/12 03:51:03;;;;;;;4.60;4.30;;;13.10;1.00;;;;;;6289308;28;20233;-55
2022/09/12 03:54:14;;;;;;;5.00;4.80;;;13.10;1.00;;;;;;6297425;28;20460;-56
2022/09/12 03:57:17;;;;;;;5.27;5.07;;;13.10;1.00;;;;;;6282934;28;20245;-57
2022/09/12 04:00:24;;;;;;;5.10;4.80;;;13.00;1.00;;;;;;6292472;28;20248;-56
2022/09/12 04:03:27;;;;;;;5.93;5.63;;;13.00;1.00;;;;;;6284814;28;20388;-55
2022/09/12 04:06:33;;;;;;;4.47;4.27;;;13.00;1.00;;;;;;6267082;28;20230;-58
2022/09/12 04:09:38;;;;;;;5.33;5.13;;;13.00;1.00;;;;;;6284188;28;20658;-56
2022/09/12 04:12:41;;;;;;;5.43;5.13;;;13.00;1.00;;;;;;6286324;28;20236;-58
2022/09/12 04:15:43;;;;;;;5.20;5.00;;;12.90;1.00;;;;;;6289463;28;20739;-56
2022/09/12 04:18:47;;;;;;;4.87;4.67;;;13.00;1.00;;;;;;6270838;28;20236;-57
2022/09/12 04:21:50;;;;;;;5.87;5.57;;;12.90;1.00;;;;;;6286620;28;20339;-56
2022/09/12 04:24:54;;;;;;;6.30;5.90;;;12.90;1.00;;;;;;6286300;28;20732;-56
2022/09/12 04:27:57;;;;;;;6.07;5.53;;;12.90;1.00;;;;;;6291428;28;20247;-56
2022/09/12 04:31:02;;;;;;;5.20;4.87;;;12.90;1.00;;;;;;6285325;28;20246;-57
2022/09/12 04:34:05;;;;;;;4.80;4.53;;;12.90;1.00;;;;;;6282113;28;20229;-56
2022/09/12 04:37:10;;;;;;;5.33;5.03;;;12.80;1.00;;;;;;6287296;28;20233;-57
2022/09/12 04:40:14;;;;;;;5.43;5.20;;;12.80;1.00;;;;;;6292316;28;20245;-57
2022/09/12 04:43:17;;;;;;;5.20;5.00;;;12.80;1.00;;;;;;6279972;28;20224;-57
2022/09/12 04:46:21;;;;;;;6.03;5.63;;;12.80;1.00;;;;;;6288651;28;20240;-57
2022/09/12 04:49:23;;;;;;;6.30;5.90;;;12.80;1.00;;;;;;6283823;28;20395;-57
2022/09/12 04:52:26;;;;;;;6.30;6.00;;;12.80;1.00;;;;;;6281163;28;20272;-56
2022/09/12 04:55:34;;;;;;;6.27;5.87;;;12.90;1.00;;;;;;6290365;28;20236;-58
2022/09/12 04:58:38;;;;;;;5.70;5.40;;;12.90;1.00;;;;;;6286350;28;20226;-57
2022/09/12 05:01:41;;;;;;;5.30;5.10;;;12.90;1.00;;;;;;6291890;28;20237;-56
2022/09/12 05:04:45;;;;;;;5.37;5.10;;;12.90;1.00;;;;;;6293905;28;20267;-57
2022/09/12 05:07:48;;;;;;;6.37;5.87;;;12.90;1.00;;;;;;6280198;28;20253;-55
2022/09/12 05:10:53;;;;;;;6.40;6.00;;;12.90;1.00;;;;;;6276102;28;20248;-56
2022/09/12 05:13:55;;;;;;;7.83;7.03;;;12.90;1.00;;;;;;6282623;28;20237;-56
2022/09/12 05:17:00;;;;;;;6.83;6.33;;;13.00;1.00;;;;;;6287620;28;20712;-57
2022/09/12 05:20:04;;;;;;;5.40;5.20;;;13.00;1.00;;;;;;6285657;28;20251;-56
2022/09/12 05:23:06;;;;;;;6.73;6.20;;;13.00;1.00;;;;;;6293223;28;20237;-56
2022/09/12 05:26:14;;;;;;;6.90;6.50;;;13.10;1.00;;;;;;6286531;28;20229;-57
2022/09/12 05:29:17;;;;;;;5.80;5.50;;;13.10;1.00;;;;;;6285899;28;20384;-58
2022/09/12 05:32:20;;;;;;;6.90;6.40;;;13.20;1.00;;;;;;6287847;28;20238;-57
2022/09/12 05:35:23;;;;;;;5.60;5.30;;;13.20;1.00;;;;;;6284171;28;20240;-61
2022/09/12 05:38:27;;;;;;;7.13;6.73;;;13.20;1.00;;;;;;6285542;28;20393;-57
2022/09/12 05:41:33;;;;;;;5.83;5.53;;;13.30;1.00;;;;;;6283005;28;20240;-57
2022/09/12 05:44:36;;;;;;;8.90;8.03;;;13.30;1.00;;;;;;6275229;28;20245;-58
2022/09/12 05:47:39;;;;;;;8.70;7.63;;;13.40;1.00;;;;;;6289697;28;20249;-57
2022/09/12 05:50:42;;;;;;;7.83;7.10;;;13.50;1.00;;;;;;6294436;28;20241;-57
2022/09/12 05:53:46;;;;;;;8.77;8.00;;;13.50;1.00;;;;;;6291462;28;20240;-56
2022/09/12 05:56:50;;;;;;;9.80;8.53;;;13.60;1.00;;;;;;6281559;28;20237;-57
2022/09/12 05:59:53;;;;;;;9.47;8.50;;;13.70;1.00;;;;;;6287184;28;20240;-57
2022/09/12 06:02:56;;;;;;;11.27;8.97;;;13.70;1.00;;;;;;6284914;28;20237;-57
2022/09/12 06:06:02;;;;;;;10.60;9.60;;;13.80;1.00;;;;;;6289589;28;20624;-58
2022/09/12 06:09:06;;;;;;;10.93;9.60;;;13.90;1.00;;;;;;6291503;28;20237;-56
2022/09/12 06:12:10;;;;;;;10.43;9.43;;;14.00;1.00;;;;;;6274134;28;20245;-57
2022/09/12 06:15:15;;;;;;;9.20;8.30;;;14.10;1.00;;;;;;6277465;28;20701;-57
2022/09/12 06:18:18;;;;;;;10.60;8.57;;;14.20;1.00;;;;;;6273282;28;20230;-57
2022/09/12 06:21:22;;;;;;;9.20;8.40;;;14.40;1.00;;;;;;6272087;28;20241;-57
2022/09/12 06:24:25;;;;;;;8.67;8.17;;;14.40;1.00;;;;;;6273434;28;20237;-57
2022/09/12 06:27:29;;;;;;;13.60;8.93;;;14.50;1.00;;;;;;6288395;28;20229;-56
2022/09/12 06:30:32;;;;;;;8.27;7.50;;;14.60;1.00;;;;;;6282221;28;20243;-57
2022/09/12 06:33:37;;;;;;;8.10;7.30;;;14.70;1.00;;;;;;6278731;28;20245;-57
2022/09/12 06:36:43;;;;;;;7.67;7.07;;;14.80;1.00;;;;;;6285166;28;20616;-56
2022/09/12 06:39:47;;;;;;;7.87;7.10;;;14.90;1.00;;;;;;6285448;28;20607;-56
2022/09/12 06:42:51;;;;;;;8.50;7.77;;;15.00;1.00;;;;;;6282551;28;20240;-57
2022/09/12 06:45:55;;;;;;;9.47;8.10;;;15.20;1.00;;;;;;6283287;28;20247;-56
2022/09/12 06:48:59;;;;;;;8.90;8.30;;;15.40;1.00;;;;;;6281829;28;20234;-57
2022/09/12 06:52:02;;;;;;;9.40;8.70;;;15.50;1.00;;;;;;6277976;28;20291;-57
2022/09/12 06:55:06;;;;;;;8.63;7.87;;;15.90;1.00;;;;;;6286893;28;20225;-56
2022/09/12 06:58:10;;;;;;;8.30;7.53;;;16.50;1.00;;;;;;6284904;28;20229;-57
2022/09/12 07:01:15;;;;;;;9.50;8.60;;;16.70;1.00;;;;;;6292274;28;20624;-56
2022/09/12 07:04:18;;;;;;;9.73;8.90;;;16.70;1.00;;;;;;6286824;28;20229;-57
2022/09/12 07:07:21;;;;;;;8.83;8.20;;;16.60;1.00;;;;;;6271361;28;20240;-58
2022/09/12 07:10:24;;;;;;;7.73;7.23;;;16.40;1.00;;;;;;6277250;28;20248;-58
2022/09/12 07:13:28;;;;;;;8.20;7.23;;;16.50;1.00;;;;;;6278302;28;20226;-58
2022/09/12 07:16:32;;;;;;;8.27;7.67;;;16.50;1.00;;;;;;6278903;28;20225;-57
2022/09/12 07:19:35;;;;;;;8.90;8.17;;;16.40;1.00;;;;;;6282482;28;20311;-57
2022/09/12 07:22:38;;;;;;;8.80;8.07;;;16.50;1.00;;;;;;6294717;28;20812;-60
2022/09/12 07:25:54;;;;;;;8.90;7.47;;;16.50;1.00;;;;;;6293391;28;20264;-57
2022/09/12 07:28:59;;;;;;;8.47;7.40;;;16.50;1.00;;;;;;6289843;28;20640;-58
2022/09/12 07:32:23;;;;;;;7.77;7.13;;;16.60;1.00;;;;;;6288804;28;20233;-57
2022/09/12 07:35:26;;;;;;;8.00;7.43;;;16.60;1.00;;;;;;6282080;28;20238;-57
2022/09/12 07:38:30;;;;;;;7.97;7.40;;;16.60;1.00;;;;;;6289830;28;20232;-58
2022/09/12 07:41:33;;;;;;;7.60;7.10;;;16.60;1.00;;;;;;6288979;28;20237;-56
2022/09/12 07:44:37;;;;;;;7.57;7.00;;;16.70;1.00;;;;;;6283685;28;20643;-56
2022/09/12 07:47:40;;;;;;;6.70;6.30;;;16.70;1.00;;;;;;6281068;28;20244;-57
2022/09/12 07:50:43;;;;;;;6.93;6.63;;;16.70;1.00;;;;;;6289203;28;20242;-56
2022/09/12 07:53:47;;;;;;;6.13;5.73;;;16.80;1.00;;;;;;6297227;28;20232;-57
2022/09/12 07:56:50;;;;;;;5.13;4.93;;;16.90;1.00;;;;;;6286174;28;20244;-56
2022/09/12 07:59:54;;;;;;;6.03;5.50;;;17.00;1.00;;;;;;6278537;28;20823;-57
2022/09/12 08:02:57;;;;;;;6.30;5.90;;;17.10;1.00;;;;;;6291468;28;20609;-58
2022/09/12 08:06:05;;;;;;;5.50;5.20;;;17.10;1.00;;;;;;6280617;28;20232;-56
2022/09/12 08:09:09;;;;;;;6.27;5.97;;;17.20;1.00;;;;;;6283140;28;20662;-56
2022/09/12 08:12:11;;;;;;;4.60;4.30;;;17.40;1.00;;;;;;6285840;28;20233;-56
2022/09/12 08:15:16;;;;;;;5.17;4.77;;;17.40;1.00;;;;;;6294838;28;20236;-56
2022/09/12 08:18:19;;;;;;;5.57;5.03;;;17.50;1.00;;;;;;6287807;28;20233;-57
2022/09/12 08:21:24;;;;;;;4.83;4.53;;;17.50;1.00;;;;;;6281440;28;20281;-56
2022/09/12 08:24:27;;;;;;;4.40;4.20;;;17.50;1.00;;;;;;6278684;28;20226;-57
2022/09/12 08:27:30;;;;;;;4.87;4.53;;;17.60;1.00;;;;;;6286779;28;20712;-57
2022/09/12 08:30:34;;;;;;;4.60;4.30;;;17.70;1.00;;;;;;6286462;28;20233;-56
2022/09/12 08:33:38;;;;;;;4.20;4.00;;;17.80;1.00;;;;;;6281330;28;20276;-56
2022/09/12 08:36:40;;;;;;;4.23;3.93;;;17.80;1.00;;;;;;6290569;28;20240;-62
2022/09/12 08:39:43;;;;;;;4.40;4.10;;;17.90;1.00;;;;;;6283014;28;20241;-57
2022/09/12 08:42:57;;;;;;;4.80;4.60;;;18.00;1.00;;;;;;6284855;28;20261;-56
2022/09/12 08:46:08;;;;;;;4.30;3.93;;;18.10;1.00;;;;;;6283242;28;20237;-53
2022/09/12 08:49:15;;;;;;;4.00;3.80;;;18.20;1.00;;;;;;6287681;28;20567;-58
2022/09/12 08:52:21;;;;;;;3.90;3.70;;;18.40;1.00;;;;;;6287585;28;20229;-60
2022/09/12 08:55:32;;;;;;;3.90;3.60;;;18.50;1.00;;;;;;6279244;28;20710;-57
2022/09/12 08:58:40;;;;;;;3.63;3.40;;;18.70;1.00;;;;;;6294344;28;20613;-57
2022/09/12 09:01:47;;;;;;;3.60;3.47;;;18.70;1.00;;;;;;6280275;28;20242;-57
2022/09/12 09:04:56;;;;;;;3.10;3.00;;;18.90;1.00;;;;;;6289804;28;20864;-56
2022/09/12 09:08:14;;;;;;;7.93;2.80;;;18.90;1.00;;;;;;6289469;28;20233;-57
2022/09/12 09:11:33;;;;;;;3.17;2.90;;;18.90;1.00;;;;;;6277606;28;20253;-57
2022/09/12 09:14:49;;;;;;;2.70;2.60;;;18.80;1.00;;;;;;6286864;28;20674;-56
2022/09/12 09:18:00;;;;;;;3.07;2.97;;;18.80;1.00;;;;;;6278658;28;20702;-55
2022/09/12 09:21:09;;;;;;;3.80;3.70;;;18.70;1.00;;;;;;6280698;28;20234;-56
2022/09/12 09:24:15;;;;;;;3.13;2.93;;;18.70;1.00;;;;;;6292346;28;20480;-56
2022/09/12 09:27:29;;;;;;;3.03;2.93;;;18.90;1.00;;;;;;6258690;28;20722;-58
2022/09/12 09:30:43;;;;;;;2.80;2.70;;;19.10;1.00;;;;;;6285459;28;20233;-56
2022/09/12 09:33:50;;;;;;;2.50;2.50;;;19.40;1.00;;;;;;6280785;28;20248;-57
2022/09/12 09:37:00;;;;;;;3.03;2.87;;;19.70;1.00;;;;;;6285990;28;20234;-57
2022/09/12 09:40:15;;;;;;;2.60;2.50;;;19.90;1.00;;;;;;6278267;28;20241;-58
2022/09/12 09:43:22;;;;;;;3.20;3.00;;;20.00;1.00;;;;;;6279060;28;20305;-56
2022/09/12 09:46:27;;;;;;;2.50;2.30;;;20.00;1.00;;;;;;6290098;28;20234;-58
2022/09/12 09:49:34;;;;;;;3.07;2.97;;;20.00;1.00;;;;;;6292883;28;20237;-56
2022/09/12 09:52:38;;;;;;;2.63;2.50;;;20.10;1.00;;;;;;6291129;28;20239;-57
2022/09/12 09:55:44;;;;;;;2.20;2.13;;;20.20;1.00;;;;;;6284246;28;20559;-56
2022/09/12 09:58:47;;;;;;;2.53;2.43;;;20.40;1.00;;;;;;6271961;28;20244;-56
2022/09/12 10:01:53;;;;;;;2.40;2.30;;;20.60;1.00;;;;;;6290218;28;20812;-57
2022/09/12 10:04:58;;;;;;;2.40;2.20;;;20.70;1.00;;;;;;6281322;28;20245;-58
2022/09/12 10:08:03;;;;;;;2.53;2.43;;;20.90;1.00;;;;;;6253238;28;20226;-58
2022/09/12 10:11:17;;;;;;;2.30;2.20;;;21.00;1.00;;;;;;6283159;28;20368;-58
2022/09/12 10:14:41;;;;;;;2.00;2.00;;;21.00;1.00;;;;;;6287138;28;20240;-56
2022/09/12 10:17:46;;;;;;;2.50;2.40;;;20.90;1.00;;;;;;6273373;28;20715;-57
2022/09/12 10:20:51;;;;;;;2.17;2.00;;;20.40;1.00;;;;;;6284938;28;20249;-56
2022/09/12 10:24:02;;;;;;;2.50;2.40;;;20.30;1.00;;;;;;6281850;28;20240;-57
2022/09/12 10:27:14;;;;;;;2.40;2.30;;;20.20;1.00;;;;;;6282920;28;20264;-57
2022/09/12 10:30:20;;;;;;;2.10;2.07;;;19.90;1.00;;;;;;6282340;28;20694;-57
2022/09/12 10:33:25;;;;;;;2.10;2.00;;;19.80;1.00;;;;;;6283668;28;20242;-56
2022/09/12 10:36:37;;;;;;;2.43;2.17;;;19.60;1.00;;;;;;6280154;28;20241;-56
2022/09/12 10:39:41;;;;;;;2.57;2.47;;;19.50;1.00;;;;;;6284804;28;20761;-57
2022/09/12 10:42:48;;;;;;;2.50;2.33;;;19.30;1.00;;;;;;6288380;28;20274;-56
2022/09/12 10:45:51;;;;;;;2.57;2.47;;;19.20;1.00;;;;;;6278371;28;20233;-56
2022/09/12 10:49:14;;;;;;;2.43;2.33;;;19.10;1.00;;;;;;6295201;28;20461;-56
2022/09/12 10:52:23;;;;;;;2.73;2.53;;;19.10;1.00;;;;;;6281664;28;20229;-56
2022/09/12 10:55:35;;;;;;;2.93;2.73;;;19.00;1.00;;;;;;6285952;28;20244;-56
2022/09/12 10:59:02;;;;;;;2.90;2.70;;;19.10;1.00;;;;;;6286225;28;20237;-55
2022/09/12 11:02:15;;;;;;;2.43;2.43;;;19.20;1.00;;;;;;6277995;28;20620;-55
2022/09/12 11:05:35;;;;;;;2.67;2.57;;;19.60;1.00;;;;;;6281050;28;20620;-57
2022/09/12 11:08:59;;;;;;;2.53;2.50;;;19.80;1.00;;;;;;6281121;28;20497;-56
2022/09/12 11:12:13;;;;;;;3.37;3.07;;;20.00;1.00;;;;;;6292081;28;20713;-57
2022/09/12 11:15:35;;;;;;;4.97;2.87;;;20.00;1.00;;;;;;6286361;28;20628;-56
2022/09/12 11:19:15;;;;;;;3.17;2.87;;;19.90;1.00;;;;;;6285391;28;20808;-56
2022/09/12 11:22:35;;;;;;;6.67;3.10;;;20.00;1.00;;;;;;6231100;28;20238;-58
2022/09/12 11:25:43;;;;;;;2.87;2.67;;;19.80;1.00;;;;;;6289933;28;20249;-57
2022/09/12 11:28:59;;;;;;;2.23;2.23;;;19.70;1.00;;;;;;6276984;28;20318;-56
2022/09/12 11:32:13;;;;;;;2.77;2.53;;;19.70;1.00;;;;;;6282993;28;20242;-56
2022/09/12 11:35:24;;;;;;;2.63;2.40;;;19.80;1.00;;;;;;6275867;28;20298;-57
2022/09/12 11:38:57;;;;;;;2.90;2.50;;;19.80;1.00;;;;;;6285460;28;20749;-56
2022/09/12 11:42:05;;;;;;;2.53;2.33;;;20.10;1.00;;;;;;6269061;28;20268;-56
2022/09/12 11:45:16;;;;;;;4.53;2.17;;;20.50;1.00;;;;;;6273708;28;20222;-56
2022/09/12 11:48:31;;;;;;;3.40;2.00;;;20.70;1.00;;;;;;6282645;28;20271;-62
2022/09/12 11:51:41;;;;;;;2.20;2.00;;;20.90;1.00;;;;;;6285158;28;20806;-57
2022/09/12 11:54:48;;;;;;;1.87;1.77;;;21.10;1.00;;;;;;6285038;28;20234;-58
2022/09/12 11:57:57;;;;;;;1.90;1.80;;;21.40;1.00;;;;;;6269268;28;20760;-56
2022/09/12 12:01:11;;;;;;;2.33;2.23;;;21.50;1.00;;;;;;6288572;28;20251;-57
2022/09/12 12:04:19;;;;;;;2.40;2.20;;;21.60;1.00;;;;;;6293554;28;20237;-56
2022/09/12 12:07:21;;;;;;;1.97;1.87;;;21.80;1.00;;;;;;6287032;28;20713;-56
2022/09/12 12:10:32;;;;;;;2.00;1.83;;;21.80;1.00;;;;;;6284438;28;20240;-56
2022/09/12 12:13:39;;;;;;;1.90;1.90;;;21.90;1.00;;;;;;6279423;28;20230;-55
2022/09/12 12:16:43;;;;;;;2.23;2.10;;;22.10;1.00;;;;;;6284577;28;20230;-57
2022/09/12 12:19:47;;;;;;;2.43;2.33;;;22.00;1.00;;;;;;6286601;28;20339;-59
2022/09/12 12:22:54;;;;;;;1.60;1.60;;;22.00;1.00;;;;;;6284379;28;20236;-56
2022/09/12 12:25:58;;;;;;;2.40;2.40;;;21.90;1.00;;;;;;6286950;28;20259;-56
2022/09/12 12:29:02;;;;;;;2.17;2.13;;;22.00;1.00;;;;;;6282677;28;20241;-58
2022/09/12 12:32:25;;;;;;;2.10;2.00;;;22.00;1.00;;;;;;6284546;28;20252;-56
2022/09/12 12:35:40;;;;;;;2.30;2.20;;;22.10;1.00;;;;;;6285191;28;20225;-56
2022/09/12 12:38:43;;;;;;;2.10;2.10;;;22.30;1.00;;;;;;6283481;28;20245;-56
2022/09/12 12:41:46;;;;;;;2.20;2.20;;;22.10;1.00;;;;;;6281803;28;20245;-55
2022/09/12 12:44:51;;;;;;;2.40;2.30;;;22.10;1.00;;;;;;6286822;28;20235;-56
2022/09/12 12:47:56;;;;;;;2.10;2.10;;;22.00;1.00;;;;;;6288769;28;20233;-57
2022/09/12 12:51:26;;;;;;;3.00;2.00;;;21.90;1.00;;;;;;6285689;28;20240;-55
2022/09/12 12:54:52;;;;;;;2.40;1.83;;;21.90;1.00;;;;;;6287590;28;20264;-56
2022/09/12 12:57:57;;;;;;;2.80;1.83;;;21.80;1.00;;;;;;6286436;28;20230;-57
2022/09/12 13:01:11;;;;;;;1.73;1.73;;;21.90;1.00;;;;;;6259952;28;20236;-56
2022/09/12 13:04:17;;;;;;;1.90;1.80;;;21.70;1.00;;;;;;6279845;28;20226;-57
2022/09/12 13:07:28;;;;;;;1.77;1.73;;;21.60;1.00;;;;;;6284175;28;20900;-55
2022/09/12 13:10:31;;;;;;;2.73;1.77;;;21.40;1.00;;;;;;6281745;28;20246;-55
2022/09/12 13:13:38;;;;;;;1.90;1.90;;;21.30;1.00;;;;;;6281773;28;20244;-56
2022/09/12 13:16:54;;;;;;;1.90;1.90;;;21.50;1.00;;;;;;6286671;28;20236;-56
2022/09/12 13:20:18;;;;;;;1.80;1.80;;;21.60;1.00;;;;;;6284328;28;20236;-55
2022/09/12 13:23:36;;;;;;;2.10;2.10;;;21.70;1.00;;;;;;6286920;28;20324;-57
2022/09/12 13:26:42;;;;;;;1.90;1.90;;;21.80;1.00;;;;;;6289887;28;20249;-55
2022/09/12 13:29:45;;;;;;;1.73;1.73;;;22.00;1.00;;;;;;6282676;28;20400;-57
2022/09/12 13:32:50;;;;;;;1.80;1.70;;;22.00;1.00;;;;;;6286824;28;20256;-56
2022/09/12 13:36:33;;;;;;;1.97;1.87;;;22.10;1.00;;;;;;6282395;28;20613;-57
2022/09/12 13:39:46;;;;;;;1.70;1.70;;;22.10;1.00;;;;;;6276711;28;20706;-57
2022/09/12 13:42:53;;;;;;;1.60;1.60;;;22.00;1.00;;;;;;6282076;28;20238;-57
2022/09/12 13:45:56;;;;;;;3.13;1.63;;;22.00;1.00;;;;;;6288650;28;20243;-58
2022/09/12 13:49:06;;;;;;;1.70;1.70;;;22.10;1.00;;;;;;6283745;28;20729;-58
2022/09/12 13:52:16;;;;;;;1.97;1.87;;;22.10;1.00;;;;;;6278470;28;20245;-56
2022/09/12 13:55:29;;;;;;;1.80;1.80;;;22.10;1.00;;;;;;6279533;28;20233;-57
2022/09/12 13:58:34;;;;;;;2.00;1.90;;;22.00;1.00;;;;;;6279328;28;20240;-55
2022/09/12 14:01:39;;;;;;;1.93;1.93;;;21.90;1.00;;;;;;6287065;28;20733;-56
2022/09/12 14:08:09;;;;;;;1.90;1.90;;;21.80;1.00;;;;;;6283378;28;20225;-59
2022/09/12 14:11:18;;;;;;;1.90;1.90;;;21.90;1.00;;;;;;6286477;28;20236;-56
2022/09/12 14:14:28;;;;;;;1.70;1.70;;;21.80;1.00;;;;;;6290058;28;20337;-56
2022/09/12 14:17:35;;;;;;;1.87;1.80;;;21.80;1.00;;;;;;6285234;28;20384;-56
2022/09/12 14:20:40;;;;;;;2.10;1.93;;;21.90;1.00;;;;;;6279777;28;20249;-56
2022/09/12 14:23:46;;;;;;;2.03;1.93;;;21.90;1.00;;;;;;6292172;28;20237;-60
2022/09/12 14:26:51;;;;;;;2.30;2.20;;;21.90;1.00;;;;;;6288553;28;20601;-56
2022/09/12 14:30:01;;;;;;;2.10;1.90;;;21.90;1.00;;;;;;6281268;28;20248;-56
2022/09/12 14:33:20;;;;;;;2.40;2.40;;;21.90;1.00;;;;;;6291588;28;20419;-56
2022/09/12 14:36:27;;;;;;;2.47;1.70;;;21.90;1.00;;;;;;6275209;28;20237;-56
2022/09/12 14:39:33;;;;;;;2.23;2.23;;;21.90;1.00;;;;;;6281860;28;20259;-56
2022/09/12 14:42:36;;;;;;;2.07;2.07;;;22.00;1.00;;;;;;6284323;28;20591;-60
2022/09/12 14:45:39;;;;;;;2.07;2.03;;;21.90;1.00;;;;;;6282808;28;20753;-56
2022/09/12 14:48:46;;;;;;;2.00;2.00;;;21.80;1.00;;;;;;6285214;28;20233;-56
2022/09/12 14:51:58;;;;;;;1.87;1.87;;;21.70;1.00;;;;;;6290451;28;20541;-56
2022/09/12 14:55:04;;;;;;;1.70;1.70;;;21.70;1.00;;;;;;6292760;28;20248;-54
2022/09/12 14:58:14;;;;;;;1.73;1.73;;;21.60;1.00;;;;;;6281286;28;20981;-56
2022/09/12 15:01:25;;;;;;;1.90;1.90;;;21.50;1.00;;;;;;6291366;28;20241;-56
2022/09/12 15:04:42;;;;;;;2.03;2.03;;;21.30;1.00;;;;;;6284503;28;20739;-58
2022/09/12 15:07:54;;;;;;;2.33;2.33;;;21.30;1.00;;;;;;6280582;28;20230;-56
2022/09/12 15:10:58;;;;;;;1.90;1.80;;;21.20;1.00;;;;;;6283078;28;20244;-55
2022/09/12 15:14:12;;;;;;;1.83;1.83;;;21.00;1.00;;;;;;6289327;28;20237;-56
2022/09/12 15:17:15;;;;;;;2.10;2.00;;;21.00;1.00;;;;;;6280651;28;20247;-54
2022/09/12 15:20:18;;;;;;;1.80;1.80;;;20.90;1.00;;;;;;6267485;28;20567;-56
2022/09/12 15:23:30;;;;;;;1.80;1.80;;;20.90;1.00;;;;;;6286248;28;20230;-57
2022/09/12 15:26:33;;;;;;;2.10;2.10;;;20.90;1.00;;;;;;6281718;28;20690;-55
2022/09/12 15:29:36;;;;;;;1.80;1.80;;;20.80;1.00;;;;;;6283209;28;20236;-54
2022/09/12 15:32:41;;;;;;;1.70;1.70;;;20.80;1.00;;;;;;6281212;28;20241;-56
2022/09/12 15:35:45;;;;;;;1.87;1.87;;;20.80;1.00;;;;;;6286552;28;20244;-56
2022/09/12 15:38:50;;;;;;;2.97;1.90;;;20.80;1.00;;;;;;6283955;28;20752;-56
2022/09/12 15:41:54;;;;;;;1.70;1.70;;;20.70;1.00;;;;;;6274213;28;20737;-56
2022/09/12 15:44:58;;;;;;;1.80;1.80;;;20.70;1.00;;;;;;6290536;28;20225;-56
2022/09/12 15:48:05;;;;;;;2.27;2.27;;;20.60;1.00;;;;;;6291542;28;20237;-55
2022/09/12 15:51:11;;;;;;;2.30;2.10;;;20.60;1.00;;;;;;6288114;28;20229;-54
2022/09/12 15:54:20;;;;;;;1.80;1.80;;;20.50;1.00;;;;;;6279339;28;20823;-56
2022/09/12 15:57:23;;;;;;;1.90;1.90;;;20.50;1.00;;;;;;6283564;28;20253;-55
2022/09/12 16:00:26;;;;;;;2.13;2.13;;;20.40;1.00;;;;;;6290113;28;20707;-56
2022/09/12 16:03:30;;;;;;;2.00;2.00;;;20.40;1.00;;;;;;6289353;28;20236;-56
2022/09/12 16:06:33;;;;;;;1.93;1.93;;;20.40;1.00;;;;;;6300181;28;20245;-54
2022/09/12 16:09:40;;;;;;;2.23;2.23;;;20.40;1.00;;;;;;6277586;28;20337;-55
2022/09/12 16:12:44;;;;;;;2.20;2.20;;;20.40;1.00;;;;;;6286682;28;20237;-56
2022/09/12 16:15:47;;;;;;;2.10;2.10;;;20.30;1.00;;;;;;6284727;28;20713;-56
2022/09/12 16:18:50;;;;;;;2.43;2.23;;;20.30;1.00;;;;;;6290360;28;20724;-55
2022/09/12 16:21:52;;;;;;;2.27;2.20;;;20.20;1.00;;;;;;6283664;28;20787;-55
2022/09/12 16:24:57;;;;;;;2.10;2.00;;;20.10;1.00;;;;;;6283523;28;20288;-55
2022/09/12 16:28:00;;;;;;;2.20;2.10;;;20.10;1.00;;;;;;6282842;28;20769;-56
2022/09/12 16:31:05;;;;;;;2.37;2.37;;;20.00;1.00;;;;;;6285353;28;20249;-56
2022/09/12 16:34:08;;;;;;;2.20;2.10;;;20.00;1.00;;;;;;6276157;28;20225;-56